createdAt,value
2017-09-28T00:00:49.825Z,99.10
2017-09-28T00:03:17.450Z,99.00
2017-09-28T00:05:45.041Z,98.90
2017-09-28T00:08:12.601Z,99.30
2017-09-28T00:10:40.217Z,99.10
2017-09-28T00:13:08.559Z,99.10
2017-09-28T00:15:36.154Z,99.10
2017-09-28T00:18:03.731Z,99.10
2017-09-28T00:20:32.107Z,99.30
2017-09-28T00:23:00.433Z,99.30
2017-09-28T00:25:28.011Z,99.30
2017-09-28T00:27:55.593Z,99.30
2017-09-28T00:30:23.153Z,99.40
2017-09-28T00:32:50.798Z,99.40
2017-09-28T00:35:18.382Z,99.50
2017-09-28T00:37:45.990Z,99.70
2017-09-28T00:40:14.348Z,99.60
2017-09-28T00:42:42.688Z,99.60
2017-09-28T00:45:10.299Z,99.50
2017-09-28T00:47:38.625Z,99.60
2017-09-28T00:50:06.217Z,99.50
2017-09-28T00:52:33.819Z,99.60
2017-09-28T00:55:02.177Z,99.60
2017-09-28T00:57:29.801Z,99.60
2017-09-28T00:59:57.361Z,99.60
2017-09-28T01:02:24.968Z,99.70
2017-09-28T01:04:52.561Z,99.80
2017-09-28T01:07:20.913Z,99.60
2017-09-28T01:09:50.027Z,99.50
2017-09-28T01:12:18.370Z,99.40
2017-09-28T01:14:45.989Z,99.60
2017-09-28T01:17:14.359Z,99.70
2017-09-28T01:19:42.693Z,99.70
2017-09-28T01:22:10.287Z,99.70
2017-09-28T01:24:37.860Z,99.70
2017-09-28T01:27:05.493Z,99.60
2017-09-28T01:29:33.085Z,99.70
2017-09-28T01:32:00.660Z,99.60
2017-09-28T01:34:29.009Z,99.60
2017-09-28T01:36:56.582Z,99.60
2017-09-28T01:39:24.195Z,99.60
2017-09-28T01:41:51.783Z,99.60
2017-09-28T01:44:19.369Z,99.70
2017-09-28T01:46:47.087Z,99.60
2017-09-28T01:49:14.652Z,99.60
2017-09-28T01:51:43.037Z,99.60
2017-09-28T01:54:10.630Z,99.60
2017-09-28T01:56:38.212Z,99.60
2017-09-28T01:59:05.839Z,99.60
2017-09-28T02:01:33.423Z,99.70
2017-09-28T02:04:01.081Z,99.70
2017-09-28T02:06:28.673Z,99.60
2017-09-28T02:08:56.298Z,99.60
2017-09-28T02:11:23.873Z,99.50
2017-09-28T02:13:51.465Z,99.70
2017-09-28T02:16:19.085Z,99.60
2017-09-28T02:18:46.649Z,99.60
2017-09-28T02:21:14.258Z,99.60
2017-09-28T02:23:41.844Z,99.60
2017-09-28T02:26:10.248Z,99.70
2017-09-28T02:28:38.606Z,99.70
2017-09-28T02:31:06.178Z,99.70
2017-09-28T02:33:34.529Z,99.80
2017-09-28T02:36:02.121Z,99.80
2017-09-28T02:38:29.736Z,99.90
2017-09-28T02:40:57.311Z,99.90
2017-09-28T02:43:24.897Z,99.90
2017-09-28T02:45:52.475Z,99.90
2017-09-28T02:48:21.587Z,99.70
2017-09-28T02:50:49.933Z,99.70
2017-09-28T02:53:17.493Z,99.70
2017-09-28T02:55:45.090Z,99.70
2017-09-28T02:58:12.668Z,99.60
2017-09-28T03:00:41.035Z,99.60
2017-09-28T03:03:09.379Z,99.80
2017-09-28T03:05:36.937Z,99.60
2017-09-28T03:08:04.524Z,99.70
2017-09-28T03:10:32.113Z,99.70
2017-09-28T03:13:00.490Z,99.70
2017-09-28T03:15:28.068Z,99.70
2017-09-28T03:17:56.407Z,99.80
2017-09-28T03:20:24.024Z,99.80
2017-09-28T03:22:51.611Z,99.80
2017-09-28T03:25:19.238Z,99.80
2017-09-28T03:27:47.575Z,99.80
2017-09-28T03:30:15.156Z,99.80
2017-09-28T03:32:42.772Z,99.70
2017-09-28T03:35:10.324Z,99.70
2017-09-28T03:37:38.751Z,99.80
2017-09-28T03:40:06.312Z,99.80
2017-09-28T03:42:33.901Z,99.80
2017-09-28T03:45:01.497Z,99.60
2017-09-28T03:47:29.835Z,99.50
2017-09-28T03:49:57.451Z,99.50
2017-09-28T03:52:25.047Z,99.40
2017-09-28T03:54:52.630Z,99.50
2017-09-28T03:57:20.209Z,99.60
2017-09-28T03:59:48.555Z,99.50
2017-09-28T04:02:16.155Z,99.50
2017-09-28T04:04:45.224Z,99.50
2017-09-28T04:07:12.819Z,99.50
2017-09-28T04:09:40.380Z,99.50
2017-09-28T04:12:07.996Z,99.50
2017-09-28T04:14:35.572Z,99.60
2017-09-28T04:17:03.234Z,99.70
2017-09-28T04:19:30.853Z,99.70
2017-09-28T04:21:59.180Z,99.80
2017-09-28T04:24:26.778Z,99.70
2017-09-28T04:26:54.350Z,99.70
2017-09-28T04:29:21.939Z,99.70
2017-09-28T04:31:50.318Z,99.70
2017-09-28T04:34:18.644Z,99.80
2017-09-28T04:36:46.305Z,99.70
2017-09-28T04:39:13.882Z,99.70
2017-09-28T04:41:41.493Z,99.70
2017-09-28T04:44:09.839Z,99.90
2017-09-28T04:46:37.446Z,99.90
2017-09-28T04:49:05.779Z,99.90
2017-09-28T04:51:33.369Z,99.90
2017-09-28T04:54:01.001Z,99.90
2017-09-28T04:56:28.625Z,99.90
2017-09-28T04:58:56.971Z,99.90
2017-09-28T05:01:24.547Z,99.90
2017-09-28T05:03:52.165Z,99.90
2017-09-28T05:06:19.742Z,99.80
2017-09-28T05:08:47.347Z,99.80
2017-09-28T05:11:14.904Z,99.70
2017-09-28T05:13:42.473Z,99.80
2017-09-28T05:16:10.057Z,99.80
2017-09-28T05:18:38.399Z,99.90
2017-09-28T05:21:06.776Z,99.90
2017-09-28T05:23:34.337Z,99.90
2017-09-28T05:26:01.930Z,99.90
2017-09-28T05:28:30.299Z,99.90
2017-09-28T05:30:57.880Z,99.90
2017-09-28T05:33:26.275Z,99.90
2017-09-28T05:35:54.677Z,99.80
2017-09-28T05:38:22.254Z,99.80
2017-09-28T05:40:49.841Z,99.80
2017-09-28T05:43:17.419Z,99.80
2017-09-28T05:45:45.013Z,99.90
2017-09-28T05:48:13.359Z,99.90
2017-09-28T05:50:40.925Z,99.90
2017-09-28T05:53:08.504Z,99.90
2017-09-28T05:55:37.597Z,99.90
2017-09-28T05:58:05.211Z,99.90
2017-09-28T06:00:32.787Z,99.90
2017-09-28T06:03:00.376Z,99.90
2017-09-28T06:05:27.988Z,99.90
2017-09-28T06:07:55.548Z,99.90
2017-09-28T06:10:23.919Z,99.90
2017-09-28T06:12:52.263Z,99.90
2017-09-28T06:15:19.840Z,99.90
2017-09-28T06:17:48.946Z,99.90
2017-09-28T06:20:16.504Z,99.90
2017-09-28T06:22:44.113Z,99.90
2017-09-28T06:25:11.673Z,99.90
2017-09-28T06:27:39.295Z,99.90
2017-09-28T06:30:06.885Z,99.90
2017-09-28T06:32:35.242Z,99.90
2017-09-28T06:35:02.829Z,99.90
2017-09-28T06:37:31.171Z,99.90
2017-09-28T06:39:58.752Z,99.90
2017-09-28T06:42:27.095Z,99.70
2017-09-28T06:44:54.713Z,99.70
2017-09-28T06:47:22.288Z,99.90
2017-09-28T06:49:50.647Z,99.90
2017-09-28T06:52:18.273Z,99.90
2017-09-28T06:54:45.838Z,99.90
2017-09-28T06:57:13.401Z,99.90
2017-09-28T06:59:41.011Z,99.90
2017-09-28T07:02:08.587Z,99.90
2017-09-28T07:04:36.927Z,99.90
2017-09-28T07:07:04.529Z,99.90
2017-09-28T07:09:32.142Z,99.90
2017-09-28T07:11:59.716Z,99.90
2017-09-28T07:14:27.334Z,99.90
2017-09-28T07:16:55.664Z,99.90
2017-09-28T07:19:23.235Z,99.90
2017-09-28T07:21:50.824Z,99.90
2017-09-28T07:24:19.888Z,99.90
2017-09-28T07:26:47.468Z,99.90
2017-09-28T07:29:15.105Z,99.90
2017-09-28T07:31:42.701Z,99.90
2017-09-28T07:34:10.260Z,99.90
2017-09-28T07:36:37.879Z,99.90
2017-09-28T07:39:05.437Z,99.90
2017-09-28T07:41:33.014Z,99.90
2017-09-28T07:44:00.656Z,99.90
2017-09-28T07:46:29.016Z,99.90
2017-09-28T07:48:56.628Z,99.90
2017-09-28T07:51:24.211Z,99.90
2017-09-28T07:53:51.825Z,99.90
2017-09-28T07:56:20.167Z,99.90
2017-09-28T07:58:47.773Z,99.90
2017-09-28T08:01:16.115Z,99.90
2017-09-28T08:03:43.713Z,99.90
2017-09-28T08:06:12.063Z,99.90
2017-09-28T08:08:39.646Z,99.90
2017-09-28T08:11:08.002Z,99.80
2017-09-28T08:13:35.596Z,99.80
2017-09-28T08:16:03.175Z,99.90
2017-09-28T08:18:31.519Z,99.10
2017-09-28T08:20:59.113Z,99.10
2017-09-28T08:23:26.711Z,99.00
2017-09-28T08:25:54.301Z,99.10
2017-09-28T08:28:21.902Z,98.80
2017-09-28T08:30:49.490Z,99.20
2017-09-28T08:33:17.873Z,99.30
2017-09-28T08:35:46.225Z,99.50
2017-09-28T08:38:13.844Z,99.50
2017-09-28T08:40:41.458Z,99.80
2017-09-28T08:43:09.049Z,99.20
2017-09-28T08:45:37.436Z,99.50
2017-09-28T08:48:05.026Z,99.50
2017-09-28T08:50:33.407Z,99.40
2017-09-28T08:53:01.037Z,99.90
2017-09-28T08:55:29.421Z,99.90
2017-09-28T08:57:57.763Z,99.90
2017-09-28T09:00:26.273Z,99.90
2017-09-28T09:02:53.844Z,99.90
2017-09-28T09:05:22.266Z,99.90
2017-09-28T09:07:49.884Z,99.90
2017-09-28T09:10:20.423Z,99.90
2017-09-28T09:12:57.193Z,99.90
2017-09-28T09:15:25.176Z,99.70
2017-09-28T09:17:53.528Z,98.50
2017-09-28T09:20:21.125Z,98.50
2017-09-28T09:22:49.486Z,98.40
2017-09-28T09:25:17.044Z,98.40
2017-09-28T09:27:44.654Z,98.10
2017-09-28T09:30:12.483Z,97.90
2017-09-28T09:32:40.066Z,97.70
2017-09-28T09:35:08.485Z,98.70
2017-09-28T09:37:36.067Z,98.40
2017-09-28T09:40:03.643Z,98.50
2017-09-28T09:42:31.278Z,98.40
2017-09-28T09:44:58.855Z,98.40
2017-09-28T09:47:26.447Z,98.30
2017-09-28T09:49:54.035Z,98.60
2017-09-28T09:52:22.371Z,98.70
2017-09-28T09:54:49.961Z,98.70
2017-09-28T09:57:17.539Z,98.70
2017-09-28T09:59:45.865Z,98.60
2017-09-28T10:02:13.448Z,98.60
2017-09-28T10:04:41.023Z,98.50
2017-09-28T10:07:14.496Z,98.50
2017-09-28T10:09:46.594Z,98.00
2017-09-28T10:12:19.108Z,97.40
2017-09-28T10:14:50.311Z,97.30
2017-09-28T10:17:17.892Z,97.10
2017-09-28T10:19:45.490Z,96.40
2017-09-28T10:22:13.103Z,96.60
2017-09-28T10:24:40.673Z,95.90
2017-09-28T10:27:08.301Z,93.90
2017-09-28T10:29:35.896Z,94.50
2017-09-28T10:32:03.458Z,94.50
2017-09-28T10:34:31.049Z,94.70
2017-09-28T10:36:59.410Z,95.50
2017-09-28T10:39:27.009Z,95.40
2017-09-28T10:41:55.373Z,95.30
2017-09-28T10:44:23.728Z,95.00
2017-09-28T10:46:51.332Z,95.20
2017-09-28T10:49:19.719Z,96.20
2017-09-28T10:51:48.083Z,95.50
2017-09-28T10:54:16.487Z,95.30
2017-09-28T10:56:44.890Z,95.60
2017-09-28T10:59:12.475Z,95.30
2017-09-28T11:01:40.078Z,95.30
2017-09-28T11:04:07.677Z,94.10
2017-09-28T11:06:35.257Z,94.00
2017-09-28T11:09:02.851Z,94.00
2017-09-28T11:11:30.417Z,94.80
2017-09-28T11:13:58.029Z,95.10
2017-09-28T11:16:25.589Z,95.00
2017-09-28T11:18:53.148Z,94.60
2017-09-28T11:21:21.519Z,95.40
2017-09-28T11:23:49.931Z,95.10
2017-09-28T11:26:17.558Z,95.10
2017-09-28T11:28:45.186Z,95.60
2017-09-28T11:31:13.538Z,96.00
2017-09-28T11:33:41.101Z,96.90
2017-09-28T11:36:08.719Z,98.30
2017-09-28T11:38:37.795Z,98.50
2017-09-28T11:41:05.381Z,98.50
2017-09-28T11:43:32.987Z,98.60
2017-09-28T11:46:00.559Z,99.50
2017-09-28T11:48:28.137Z,99.70
2017-09-28T11:50:55.802Z,98.90
2017-09-28T11:53:23.382Z,98.70
2017-09-28T11:55:50.989Z,98.60
2017-09-28T11:58:19.313Z,98.70
2017-09-28T12:00:46.924Z,98.60
2017-09-28T12:03:14.549Z,98.80
2017-09-28T12:05:42.139Z,98.90
2017-09-28T12:08:09.729Z,98.90
2017-09-28T12:10:38.072Z,99.40
2017-09-28T12:13:05.651Z,99.40
2017-09-28T12:15:33.233Z,99.40
2017-09-28T12:18:00.807Z,98.70
2017-09-28T12:20:29.213Z,97.90
2017-09-28T12:22:56.809Z,97.90
2017-09-28T12:25:24.369Z,97.10
2017-09-28T12:27:51.984Z,97.00
2017-09-28T12:33:10.020Z,94.70
2017-09-28T12:35:37.623Z,94.60
2017-09-28T12:38:05.360Z,95.30
2017-09-28T12:40:33.746Z,94.10
2017-09-28T12:43:02.091Z,92.90
2017-09-28T12:45:29.670Z,92.80
2017-09-28T12:47:57.287Z,92.60
2017-09-28T12:50:24.879Z,92.50
2017-09-28T12:52:52.500Z,92.20
2017-09-28T12:55:20.194Z,92.50
2017-09-28T12:57:47.754Z,92.40
2017-09-28T13:00:15.363Z,92.20
2017-09-28T13:02:43.725Z,92.10
2017-09-28T13:05:11.299Z,92.10
2017-09-28T13:07:38.908Z,92.70
2017-09-28T13:10:06.518Z,92.70
2017-09-28T13:12:34.105Z,93.40
2017-09-28T13:15:01.713Z,94.60
2017-09-28T13:17:29.287Z,95.80
2017-09-28T13:19:56.886Z,94.70
2017-09-28T13:22:24.472Z,94.70
2017-09-28T13:24:52.829Z,93.20
2017-09-28T13:27:20.433Z,93.20
2017-09-28T13:29:48.005Z,93.70
2017-09-28T13:32:15.587Z,94.00
2017-09-28T13:34:43.199Z,96.80
2017-09-28T13:37:10.790Z,96.60
2017-09-28T13:39:39.121Z,95.60
2017-09-28T13:42:06.768Z,95.60
2017-09-28T13:44:34.343Z,95.50
2017-09-28T13:47:01.908Z,95.10
2017-09-28T13:49:29.497Z,94.70
2017-09-28T13:51:57.071Z,95.40
2017-09-28T13:54:25.437Z,96.40
2017-09-28T13:56:53.029Z,96.00
2017-09-28T13:59:21.376Z,96.60
2017-09-28T14:01:48.951Z,96.60
2017-09-28T14:04:16.563Z,97.20
2017-09-28T14:06:44.139Z,95.90
2017-09-28T14:09:11.735Z,96.20
2017-09-28T14:11:39.312Z,97.10
2017-09-28T14:14:06.904Z,97.50
2017-09-28T14:16:35.232Z,97.50
2017-09-28T14:19:02.808Z,97.50
2017-09-28T14:21:30.404Z,97.40
2017-09-28T14:23:58.725Z,97.70
2017-09-28T14:26:26.289Z,97.60
2017-09-28T14:28:53.909Z,97.80
2017-09-28T14:31:22.258Z,98.20
2017-09-28T14:33:49.850Z,97.80
2017-09-28T14:36:17.463Z,98.00
2017-09-28T14:38:45.038Z,98.40
2017-09-28T14:41:12.626Z,98.20
2017-09-28T14:43:40.249Z,98.20
2017-09-28T14:46:07.827Z,98.20
2017-09-28T14:48:35.392Z,98.30
2017-09-28T14:51:03.013Z,98.40
2017-09-28T14:53:31.351Z,98.40
2017-09-28T14:55:58.927Z,98.40
2017-09-28T14:58:26.513Z,98.50
2017-09-28T15:00:54.105Z,98.50
2017-09-28T15:03:21.661Z,98.20
2017-09-28T15:05:50.020Z,97.80
2017-09-28T15:08:17.596Z,97.80
2017-09-28T15:10:45.979Z,97.70
2017-09-28T15:13:14.610Z,97.50
2017-09-28T15:15:42.219Z,97.50
2017-09-28T15:18:09.822Z,97.70
2017-09-28T15:20:37.403Z,97.60
2017-09-28T15:23:04.957Z,97.70
2017-09-28T15:25:32.551Z,97.70
2017-09-28T15:28:00.138Z,97.90
2017-09-28T15:30:27.735Z,97.80
2017-09-28T15:32:56.945Z,97.50
2017-09-28T15:35:24.568Z,97.50
2017-09-28T15:37:52.141Z,97.20
2017-09-28T15:40:20.525Z,97.90
2017-09-28T15:42:48.884Z,98.00
2017-09-28T15:45:16.462Z,97.80
2017-09-28T15:47:44.075Z,97.90
2017-09-28T15:50:11.636Z,97.90
2017-09-28T15:52:39.224Z,98.00
2017-09-28T15:55:06.848Z,98.10
2017-09-28T15:57:34.440Z,98.20
2017-09-28T16:00:02.003Z,98.30
2017-09-28T16:02:29.589Z,98.50
2017-09-28T16:04:57.185Z,98.60
2017-09-28T16:07:25.545Z,98.80
2017-09-28T16:09:53.136Z,98.80
2017-09-28T16:12:21.457Z,99.00
2017-09-28T16:14:49.032Z,98.90
2017-09-28T16:17:16.631Z,99.00
2017-09-28T16:19:44.228Z,99.10
2017-09-28T16:22:11.803Z,99.10
2017-09-28T16:24:39.421Z,99.20
2017-09-28T16:27:06.999Z,99.20
2017-09-28T16:29:35.350Z,99.30
2017-09-28T16:32:02.991Z,99.20
2017-09-28T16:34:30.698Z,99.30
2017-09-28T16:36:58.277Z,99.30
2017-09-28T16:39:25.879Z,99.40
2017-09-28T16:41:53.469Z,99.50
2017-09-28T16:44:21.073Z,99.60
2017-09-28T16:46:49.447Z,99.80
2017-09-28T16:49:17.037Z,99.80
2017-09-28T16:51:44.616Z,99.80
2017-09-28T16:54:12.201Z,99.90
2017-09-28T16:56:39.760Z,99.90
2017-09-28T16:59:07.335Z,99.90
2017-09-28T17:01:34.924Z,99.90
2017-09-28T17:04:02.511Z,99.90
2017-09-28T17:06:30.855Z,99.90
2017-09-28T17:08:58.464Z,99.90
2017-09-28T17:11:26.802Z,99.90
2017-09-28T17:13:54.398Z,99.90
2017-09-28T17:16:22.775Z,99.90
2017-09-28T17:18:51.127Z,99.90
2017-09-28T17:21:18.703Z,99.90
2017-09-28T17:23:46.318Z,99.90
2017-09-28T17:26:13.898Z,99.90
2017-09-28T17:28:41.471Z,99.90
2017-09-28T17:31:09.094Z,99.90
2017-09-28T17:33:37.455Z,99.90
2017-09-28T17:36:05.046Z,99.90
2017-09-28T17:38:32.656Z,99.80
2017-09-28T17:41:00.256Z,99.20
2017-09-28T17:43:27.871Z,99.30
2017-09-28T17:45:55.479Z,99.90
2017-09-28T17:48:23.041Z,99.90
2017-09-28T17:50:50.627Z,99.90
2017-09-28T17:53:18.998Z,99.90
2017-09-28T17:55:47.356Z,99.90
2017-09-28T17:58:16.443Z,99.90
2017-09-28T18:00:44.071Z,99.90
2017-09-28T18:03:11.638Z,99.90
2017-09-28T18:05:39.237Z,99.90
2017-09-28T18:08:06.846Z,99.90
2017-09-28T18:10:35.204Z,99.90
2017-09-28T18:13:03.598Z,99.90
2017-09-28T18:15:31.976Z,99.90
2017-09-28T18:17:59.608Z,99.90
2017-09-28T18:20:27.183Z,99.90
2017-09-28T18:22:55.031Z,99.90
2017-09-28T18:25:22.660Z,99.90
2017-09-28T18:27:50.269Z,99.90
2017-09-28T18:30:17.934Z,99.90
2017-09-28T18:32:45.515Z,99.90
2017-09-28T18:35:13.254Z,99.90
2017-09-28T18:37:40.911Z,99.90
2017-09-28T18:40:08.477Z,99.90
2017-09-28T18:42:36.254Z,99.90
2017-09-28T18:45:03.883Z,99.90
2017-09-28T18:47:32.255Z,99.90
2017-09-28T18:50:00.605Z,99.90
2017-09-28T18:52:28.206Z,99.90
2017-09-28T18:54:56.528Z,99.90
2017-09-28T18:57:24.116Z,99.90
2017-09-28T18:59:51.727Z,99.90
2017-09-28T19:02:20.142Z,99.90
2017-09-28T19:04:47.748Z,99.90
2017-09-28T19:07:15.320Z,99.90
2017-09-28T19:09:43.667Z,99.90
2017-09-28T19:12:11.293Z,99.90
2017-09-28T19:14:38.856Z,99.90
2017-09-28T19:17:06.646Z,99.90
2017-09-28T19:19:34.619Z,99.90
2017-09-28T19:22:02.285Z,99.90
2017-09-28T19:24:29.881Z,99.90
2017-09-28T19:26:57.437Z,99.90
2017-09-28T19:29:25.024Z,99.90
2017-09-28T19:31:53.404Z,99.90
2017-09-28T19:34:20.998Z,99.90
2017-09-28T19:36:48.577Z,99.90
2017-09-28T19:39:16.183Z,99.90
2017-09-28T19:41:43.755Z,99.90
2017-09-28T19:44:11.323Z,99.90
2017-09-28T19:46:38.919Z,99.90
2017-09-28T19:49:06.510Z,99.90
2017-09-28T19:51:34.191Z,99.90
2017-09-28T19:54:01.833Z,99.90
2017-09-28T19:56:29.431Z,99.90
2017-09-28T19:58:57.031Z,99.90
2017-09-28T20:01:25.421Z,99.90
2017-09-28T20:03:53.224Z,99.90
2017-09-28T20:06:20.803Z,99.90
2017-09-28T20:08:48.465Z,99.90
2017-09-28T20:11:16.074Z,99.90
2017-09-28T20:13:44.431Z,99.90
2017-09-28T20:16:12.170Z,99.90
2017-09-28T20:18:39.759Z,99.90
2017-09-28T20:21:07.336Z,99.90
2017-09-28T20:23:34.946Z,99.90
2017-09-28T20:26:02.516Z,99.90
2017-09-28T20:28:30.115Z,99.90
2017-09-28T20:30:57.692Z,99.90
2017-09-28T20:33:25.266Z,99.90
2017-09-28T20:35:52.876Z,99.90
2017-09-28T20:38:20.434Z,99.90
2017-09-28T20:40:48.125Z,99.90
2017-09-28T20:43:15.717Z,99.90
2017-09-28T20:45:43.300Z,99.90
2017-09-28T20:48:11.645Z,99.90
2017-09-28T20:50:39.274Z,99.90
2017-09-28T20:53:06.842Z,99.90
2017-09-28T20:55:34.450Z,99.90
2017-09-28T20:58:02.014Z,99.90
2017-09-28T21:00:29.611Z,99.90
2017-09-28T21:02:57.958Z,99.90
2017-09-28T21:05:25.517Z,99.90
2017-09-28T21:07:53.116Z,99.90
2017-09-28T21:10:21.456Z,99.90
2017-09-28T21:12:49.410Z,99.90
2017-09-28T21:15:17.011Z,99.90
2017-09-28T21:17:44.573Z,99.90
2017-09-28T21:20:12.944Z,99.90
2017-09-28T21:22:40.570Z,99.90
2017-09-28T21:25:08.148Z,99.90
2017-09-28T21:27:35.916Z,99.90
2017-09-28T21:30:03.520Z,99.90
2017-09-28T21:32:31.117Z,99.90
2017-09-28T21:34:58.714Z,99.90
2017-09-28T21:37:26.325Z,99.90
2017-09-28T21:39:53.888Z,99.90
2017-09-28T21:42:21.477Z,99.90
2017-09-28T21:44:49.073Z,99.90
2017-09-28T21:47:16.661Z,99.90
2017-09-28T21:49:44.236Z,99.90
2017-09-28T21:52:13.352Z,99.90
2017-09-28T21:54:41.702Z,99.90
2017-09-28T21:57:09.321Z,99.90
2017-09-28T21:59:36.913Z,99.90
2017-09-28T22:02:04.491Z,99.90
2017-09-28T22:04:32.057Z,99.90
2017-09-28T22:06:59.661Z,99.90
2017-09-28T22:09:28.086Z,99.90
2017-09-28T22:11:55.685Z,99.90
2017-09-28T22:14:23.301Z,99.90
2017-09-28T22:16:50.873Z,99.90
2017-09-28T22:19:19.375Z,99.90
2017-09-28T22:21:46.952Z,99.90
2017-09-28T22:24:15.357Z,99.90
2017-09-28T22:26:42.945Z,99.90
2017-09-28T22:29:11.288Z,99.90
2017-09-28T22:31:38.863Z,99.90
2017-09-28T22:34:06.471Z,99.90
2017-09-28T22:36:34.048Z,99.90
2017-09-28T22:39:01.623Z,99.90
2017-09-28T22:41:29.235Z,99.90
2017-09-28T22:43:57.579Z,99.90
2017-09-28T22:46:25.155Z,99.90
2017-09-28T22:48:52.764Z,99.90
2017-09-28T22:51:20.343Z,99.90
2017-09-28T22:53:47.918Z,99.90
2017-09-28T22:56:15.658Z,99.90
2017-09-28T22:58:43.257Z,99.90
2017-09-28T23:01:10.867Z,99.90
2017-09-28T23:03:38.455Z,99.90
2017-09-28T23:06:06.013Z,99.90
2017-09-28T23:08:33.597Z,99.90
2017-09-28T23:11:01.172Z,99.90
2017-09-28T23:13:28.783Z,99.90
2017-09-28T23:15:57.134Z,99.90
2017-09-28T23:18:24.693Z,99.90
2017-09-28T23:20:52.317Z,99.90
2017-09-28T23:23:19.913Z,99.90
2017-09-28T23:25:47.492Z,99.90
2017-09-28T23:28:15.104Z,99.90
2017-09-28T23:30:43.451Z,99.90
2017-09-28T23:33:11.009Z,99.90
2017-09-28T23:35:38.663Z,99.90
2017-09-28T23:38:06.252Z,99.90
2017-09-28T23:40:33.831Z,99.90
2017-09-28T23:43:02.380Z,99.90
2017-09-28T23:45:30.758Z,99.90
2017-09-28T23:47:58.344Z,99.90
2017-09-28T23:50:25.951Z,99.90
2017-09-28T23:52:53.535Z,99.90
2017-09-28T23:55:21.136Z,99.90
2017-09-28T23:57:48.701Z,99.90
